sensor_id;sensor_type;location;lat;lon;timestamp;temperature;humidity
15834;DHT22;8017;50.812;4.934;2022-07-03T00:02:06;17.80;99.90
15834;DHT22;8017;50.812;4.934;2022-07-03T00:05:08;17.50;99.90
15834;DHT22;8017;50.812;4.934;2022-07-03T00:08:10;17.40;99.90
15834;DHT22;8017;50.812;4.934;2022-07-03T00:11:12;17.30;99.90
15834;DHT22;8017;50.812;4.934;2022-07-03T00:14:14;17.30;99.90
15834;DHT22;8017;50.812;4.934;2022-07-03T00:17:17;17.20;99.90
15834;DHT22;8017;50.812;4.934;2022-07-03T00:20:19;17.10;99.90
15834;DHT22;8017;50.812;4.934;2022-07-03T00:23:22;17.00;99.90
15834;DHT22;8017;50.812;4.934;2022-07-03T00:26:25;16.90;99.90
15834;DHT22;8017;50.812;4.934;2022-07-03T00:29:32;16.90;99.90
15834;DHT22;8017;50.812;4.934;2022-07-03T00:32:41;16.70;99.90
15834;DHT22;8017;50.812;4.934;2022-07-03T00:35:43;16.60;99.90
15834;DHT22;8017;50.812;4.934;2022-07-03T00:38:46;16.60;99.90
15834;DHT22;8017;50.812;4.934;2022-07-03T00:41:59;16.60;99.90
15834;DHT22;8017;50.812;4.934;2022-07-03T00:45:02;16.50;99.90
15834;DHT22;8017;50.812;4.934;2022-07-03T00:48:07;16.50;99.90
15834;DHT22;8017;50.812;4.934;2022-07-03T00:51:14;16.40;99.90
15834;DHT22;8017;50.812;4.934;2022-07-03T00:54:16;16.30;99.90
15834;DHT22;8017;50.812;4.934;2022-07-03T00:57:22;16.30;99.90
15834;DHT22;8017;50.812;4.934;2022-07-03T01:00:24;16.30;99.90
15834;DHT22;8017;50.812;4.934;2022-07-03T01:03:27;16.20;99.90
15834;DHT22;8017;50.812;4.934;2022-07-03T01:06:33;16.20;99.90
15834;DHT22;8017;50.812;4.934;2022-07-03T01:09:43;16.10;99.90
15834;DHT22;8017;50.812;4.934;2022-07-03T01:12:55;16.10;99.90
15834;DHT22;8017;50.812;4.934;2022-07-03T01:16:02;16.00;99.90
15834;DHT22;8017;50.812;4.934;2022-07-03T01:19:19;15.90;99.90
15834;DHT22;8017;50.812;4.934;2022-07-03T01:22:32;16.00;99.90
15834;DHT22;8017;50.812;4.934;2022-07-03T01:25:42;16.10;99.90
15834;DHT22;8017;50.812;4.934;2022-07-03T01:28:45;16.20;99.90
15834;DHT22;8017;50.812;4.934;2022-07-03T01:31:48;16.10;99.90
15834;DHT22;8017;50.812;4.934;2022-07-03T01:34:52;16.00;99.90
15834;DHT22;8017;50.812;4.934;2022-07-03T01:37:55;15.90;99.90
15834;DHT22;8017;50.812;4.934;2022-07-03T01:41:01;15.80;99.90
15834;DHT22;8017;50.812;4.934;2022-07-03T01:44:03;15.80;99.90
15834;DHT22;8017;50.812;4.934;2022-07-03T01:47:07;15.80;99.90
15834;DHT22;8017;50.812;4.934;2022-07-03T01:50:11;15.80;99.90
15834;DHT22;8017;50.812;4.934;2022-07-03T01:53:13;15.80;99.90
15834;DHT22;8017;50.812;4.934;2022-07-03T01:56:18;15.90;99.90
15834;DHT22;8017;50.812;4.934;2022-07-03T01:59:20;16.10;99.90
15834;DHT22;8017;50.812;4.934;2022-07-03T02:02:28;16.10;99.90
15834;DHT22;8017;50.812;4.934;2022-07-03T02:05:37;16.10;99.90
15834;DHT22;8017;50.812;4.934;2022-07-03T02:08:46;16.10;99.90
15834;DHT22;8017;50.812;4.934;2022-07-03T02:11:51;16.10;99.90
15834;DHT22;8017;50.812;4.934;2022-07-03T02:14:58;16.20;99.90
15834;DHT22;8017;50.812;4.934;2022-07-03T02:18:11;16.20;99.90
15834;DHT22;8017;50.812;4.934;2022-07-03T02:21:19;16.20;99.90
15834;DHT22;8017;50.812;4.934;2022-07-03T02:24:22;16.20;99.90
15834;DHT22;8017;50.812;4.934;2022-07-03T02:27:28;16.30;99.90
15834;DHT22;8017;50.812;4.934;2022-07-03T02:30:35;16.40;99.90
15834;DHT22;8017;50.812;4.934;2022-07-03T02:33:38;16.40;99.90
15834;DHT22;8017;50.812;4.934;2022-07-03T02:36:46;16.30;99.90
15834;DHT22;8017;50.812;4.934;2022-07-03T02:39:53;16.30;99.90
15834;DHT22;8017;50.812;4.934;2022-07-03T02:43:15;16.20;99.90
15834;DHT22;8017;50.812;4.934;2022-07-03T02:46:24;16.10;99.90
15834;DHT22;8017;50.812;4.934;2022-07-03T02:50:04;16.10;99.90
15834;DHT22;8017;50.812;4.934;2022-07-03T02:53:11;16.00;99.90
15834;DHT22;8017;50.812;4.934;2022-07-03T02:56:27;16.00;99.90
15834;DHT22;8017;50.812;4.934;2022-07-03T02:59:45;16.00;99.90
15834;DHT22;8017;50.812;4.934;2022-07-03T03:02:53;16.00;99.90
15834;DHT22;8017;50.812;4.934;2022-07-03T03:06:00;16.00;99.90
15834;DHT22;8017;50.812;4.934;2022-07-03T03:09:04;15.90;99.90
15834;DHT22;8017;50.812;4.934;2022-07-03T03:12:10;15.80;99.90
15834;DHT22;8017;50.812;4.934;2022-07-03T03:15:14;15.80;99.90
15834;DHT22;8017;50.812;4.934;2022-07-03T03:18:21;15.80;99.90
15834;DHT22;8017;50.812;4.934;2022-07-03T03:21:26;15.80;99.90
15834;DHT22;8017;50.812;4.934;2022-07-03T03:24:30;15.70;99.90
15834;DHT22;8017;50.812;4.934;2022-07-03T03:27:32;15.70;99.90
15834;DHT22;8017;50.812;4.934;2022-07-03T03:30:36;15.70;99.90
15834;DHT22;8017;50.812;4.934;2022-07-03T03:33:41;15.60;99.90
15834;DHT22;8017;50.812;4.934;2022-07-03T03:36:43;15.60;99.90
15834;DHT22;8017;50.812;4.934;2022-07-03T03:39:46;15.60;99.90
15834;DHT22;8017;50.812;4.934;2022-07-03T03:42:48;15.60;99.90
15834;DHT22;8017;50.812;4.934;2022-07-03T03:45:51;15.60;99.90
15834;DHT22;8017;50.812;4.934;2022-07-03T03:48:53;15.60;99.90
15834;DHT22;8017;50.812;4.934;2022-07-03T03:51:55;15.70;99.90
15834;DHT22;8017;50.812;4.934;2022-07-03T03:54:57;15.70;99.90
15834;DHT22;8017;50.812;4.934;2022-07-03T03:57:59;15.90;99.90
15834;DHT22;8017;50.812;4.934;2022-07-03T04:01:06;16.00;99.90
15834;DHT22;8017;50.812;4.934;2022-07-03T04:04:08;16.00;99.90
15834;DHT22;8017;50.812;4.934;2022-07-03T04:07:12;16.10;99.90
15834;DHT22;8017;50.812;4.934;2022-07-03T04:10:14;16.20;99.90
15834;DHT22;8017;50.812;4.934;2022-07-03T04:13:16;16.20;99.90
15834;DHT22;8017;50.812;4.934;2022-07-03T04:16:21;16.90;99.90
15834;DHT22;8017;50.812;4.934;2022-07-03T04:19:23;17.90;99.90
15834;DHT22;8017;50.812;4.934;2022-07-03T04:22:25;17.80;99.90
15834;DHT22;8017;50.812;4.934;2022-07-03T04:25:27;17.40;99.90
15834;DHT22;8017;50.812;4.934;2022-07-03T04:28:29;17.10;99.90
15834;DHT22;8017;50.812;4.934;2022-07-03T04:31:32;16.90;99.90
15834;DHT22;8017;50.812;4.934;2022-07-03T04:34:34;17.00;99.90
15834;DHT22;8017;50.812;4.934;2022-07-03T04:37:36;17.10;99.90
15834;DHT22;8017;50.812;4.934;2022-07-03T04:40:38;17.10;99.90
15834;DHT22;8017;50.812;4.934;2022-07-03T04:43:40;17.10;99.90
15834;DHT22;8017;50.812;4.934;2022-07-03T04:46:43;16.90;99.90
15834;DHT22;8017;50.812;4.934;2022-07-03T04:49:45;16.90;99.90
15834;DHT22;8017;50.812;4.934;2022-07-03T04:52:47;17.60;99.90
15834;DHT22;8017;50.812;4.934;2022-07-03T04:55:49;18.20;99.90
15834;DHT22;8017;50.812;4.934;2022-07-03T04:58:50;19.40;99.90
15834;DHT22;8017;50.812;4.934;2022-07-03T05:01:54;20.00;99.90
15834;DHT22;8017;50.812;4.934;2022-07-03T05:04:55;19.70;99.90
15834;DHT22;8017;50.812;4.934;2022-07-03T05:07:57;19.40;99.90
15834;DHT22;8017;50.812;4.934;2022-07-03T05:10:59;18.70;99.90
15834;DHT22;8017;50.812;4.934;2022-07-03T05:14:01;18.20;99.90
15834;DHT22;8017;50.812;4.934;2022-07-03T05:17:05;17.80;99.90
15834;DHT22;8017;50.812;4.934;2022-07-03T05:20:08;17.60;99.90
15834;DHT22;8017;50.812;4.934;2022-07-03T05:23:27;17.50;99.90
15834;DHT22;8017;50.812;4.934;2022-07-03T05:26:29;17.40;99.90
15834;DHT22;8017;50.812;4.934;2022-07-03T05:29:31;17.20;99.90
15834;DHT22;8017;50.812;4.934;2022-07-03T05:32:34;17.10;99.90
15834;DHT22;8017;50.812;4.934;2022-07-03T05:35:36;17.10;99.90
15834;DHT22;8017;50.812;4.934;2022-07-03T05:38:38;17.30;99.90
15834;DHT22;8017;50.812;4.934;2022-07-03T05:41:57;17.40;99.90
15834;DHT22;8017;50.812;4.934;2022-07-03T05:44:59;17.50;99.90
15834;DHT22;8017;50.812;4.934;2022-07-03T05:48:03;17.50;99.90
15834;DHT22;8017;50.812;4.934;2022-07-03T05:51:05;17.70;99.90
15834;DHT22;8017;50.812;4.934;2022-07-03T05:54:07;17.90;99.90
15834;DHT22;8017;50.812;4.934;2022-07-03T05:57:09;18.00;99.90
15834;DHT22;8017;50.812;4.934;2022-07-03T06:00:12;18.20;99.90
15834;DHT22;8017;50.812;4.934;2022-07-03T06:03:15;18.20;99.90
15834;DHT22;8017;50.812;4.934;2022-07-03T06:06:17;18.30;99.90
15834;DHT22;8017;50.812;4.934;2022-07-03T06:09:19;18.40;99.90
15834;DHT22;8017;50.812;4.934;2022-07-03T06:12:21;18.50;99.90
15834;DHT22;8017;50.812;4.934;2022-07-03T06:15:23;18.50;99.90
15834;DHT22;8017;50.812;4.934;2022-07-03T06:18:26;18.50;99.90
15834;DHT22;8017;50.812;4.934;2022-07-03T06:21:28;18.60;99.90
15834;DHT22;8017;50.812;4.934;2022-07-03T06:24:30;18.60;99.90
15834;DHT22;8017;50.812;4.934;2022-07-03T06:27:32;18.40;99.90
15834;DHT22;8017;50.812;4.934;2022-07-03T06:30:34;18.50;99.90
15834;DHT22;8017;50.812;4.934;2022-07-03T06:33:37;18.40;99.90
15834;DHT22;8017;50.812;4.934;2022-07-03T06:36:39;18.20;99.90
15834;DHT22;8017;50.812;4.934;2022-07-03T06:39:41;18.10;99.90
15834;DHT22;8017;50.812;4.934;2022-07-03T06:42:43;18.20;99.90
15834;DHT22;8017;50.812;4.934;2022-07-03T06:45:44;18.10;99.90
15834;DHT22;8017;50.812;4.934;2022-07-03T06:48:48;18.10;99.90
15834;DHT22;8017;50.812;4.934;2022-07-03T06:51:50;18.10;99.90
15834;DHT22;8017;50.812;4.934;2022-07-03T06:54:52;18.20;99.90
15834;DHT22;8017;50.812;4.934;2022-07-03T06:57:54;18.20;99.90
15834;DHT22;8017;50.812;4.934;2022-07-03T07:00:55;18.20;99.90
15834;DHT22;8017;50.812;4.934;2022-07-03T07:03:59;18.30;99.90
15834;DHT22;8017;50.812;4.934;2022-07-03T07:07:01;18.40;99.90
15834;DHT22;8017;50.812;4.934;2022-07-03T07:10:03;18.50;99.90
15834;DHT22;8017;50.812;4.934;2022-07-03T07:13:05;18.60;99.90
15834;DHT22;8017;50.812;4.934;2022-07-03T07:16:07;18.60;99.90
15834;DHT22;8017;50.812;4.934;2022-07-03T07:19:10;18.70;99.90
15834;DHT22;8017;50.812;4.934;2022-07-03T07:22:12;18.60;99.90
15834;DHT22;8017;50.812;4.934;2022-07-03T07:25:14;18.60;99.90
15834;DHT22;8017;50.812;4.934;2022-07-03T07:28:16;18.60;99.90
15834;DHT22;8017;50.812;4.934;2022-07-03T07:31:18;18.70;99.90
15834;DHT22;8017;50.812;4.934;2022-07-03T07:34:21;19.00;99.90
15834;DHT22;8017;50.812;4.934;2022-07-03T07:37:23;19.20;99.90
15834;DHT22;8017;50.812;4.934;2022-07-03T07:40:25;19.20;99.90
15834;DHT22;8017;50.812;4.934;2022-07-03T07:43:26;19.30;99.90
15834;DHT22;8017;50.812;4.934;2022-07-03T07:46:29;19.30;99.90
15834;DHT22;8017;50.812;4.934;2022-07-03T07:49:32;19.40;99.90
15834;DHT22;8017;50.812;4.934;2022-07-03T07:52:34;19.40;99.90
15834;DHT22;8017;50.812;4.934;2022-07-03T07:55:36;19.70;99.90
15834;DHT22;8017;50.812;4.934;2022-07-03T07:58:38;19.90;99.90
15834;DHT22;8017;50.812;4.934;2022-07-03T08:01:40;20.10;99.90
15834;DHT22;8017;50.812;4.934;2022-07-03T08:05:03;20.20;99.90
15834;DHT22;8017;50.812;4.934;2022-07-03T08:08:22;20.20;99.90
15834;DHT22;8017;50.812;4.934;2022-07-03T08:11:25;20.00;99.90
15834;DHT22;8017;50.812;4.934;2022-07-03T08:14:26;20.30;99.90
15834;DHT22;8017;50.812;4.934;2022-07-03T08:17:28;20.20;99.90
15834;DHT22;8017;50.812;4.934;2022-07-03T08:20:32;20.20;99.90
15834;DHT22;8017;50.812;4.934;2022-07-03T08:23:34;20.20;99.90
15834;DHT22;8017;50.812;4.934;2022-07-03T08:26:36;20.40;99.90
15834;DHT22;8017;50.812;4.934;2022-07-03T08:29:38;20.70;99.90
15834;DHT22;8017;50.812;4.934;2022-07-03T08:32:40;20.90;99.90
15834;DHT22;8017;50.812;4.934;2022-07-03T08:35:43;20.60;99.90
15834;DHT22;8017;50.812;4.934;2022-07-03T08:38:45;20.80;99.90
15834;DHT22;8017;50.812;4.934;2022-07-03T08:41:48;21.20;99.90
15834;DHT22;8017;50.812;4.934;2022-07-03T08:44:51;21.30;99.90
15834;DHT22;8017;50.812;4.934;2022-07-03T08:47:57;21.70;99.90
15834;DHT22;8017;50.812;4.934;2022-07-03T08:51:01;21.60;99.90
15834;DHT22;8017;50.812;4.934;2022-07-03T08:54:04;21.30;99.90
15834;DHT22;8017;50.812;4.934;2022-07-03T08:57:07;21.20;99.90
15834;DHT22;8017;50.812;4.934;2022-07-03T09:00:13;21.30;99.90
15834;DHT22;8017;50.812;4.934;2022-07-03T09:03:16;21.70;99.90
15834;DHT22;8017;50.812;4.934;2022-07-03T09:06:20;22.00;99.90
15834;DHT22;8017;50.812;4.934;2022-07-03T09:09:22;22.20;99.90
15834;DHT22;8017;50.812;4.934;2022-07-03T09:12:24;22.30;99.90
15834;DHT22;8017;50.812;4.934;2022-07-03T09:15:26;22.20;99.90
15834;DHT22;8017;50.812;4.934;2022-07-03T09:18:37;22.00;99.90
15834;DHT22;8017;50.812;4.934;2022-07-03T09:21:42;22.00;99.90
15834;DHT22;8017;50.812;4.934;2022-07-03T09:24:44;21.70;99.90
15834;DHT22;8017;50.812;4.934;2022-07-03T09:27:49;21.70;99.90
15834;DHT22;8017;50.812;4.934;2022-07-03T09:30:59;21.70;99.90
15834;DHT22;8017;50.812;4.934;2022-07-03T09:34:02;21.60;99.90
15834;DHT22;8017;50.812;4.934;2022-07-03T09:37:06;21.80;99.90
15834;DHT22;8017;50.812;4.934;2022-07-03T09:40:09;21.90;99.90
15834;DHT22;8017;50.812;4.934;2022-07-03T09:43:11;21.70;99.90
15834;DHT22;8017;50.812;4.934;2022-07-03T09:46:12;21.90;99.90
15834;DHT22;8017;50.812;4.934;2022-07-03T09:49:14;22.20;99.90
15834;DHT22;8017;50.812;4.934;2022-07-03T09:52:32;22.30;99.90
15834;DHT22;8017;50.812;4.934;2022-07-03T09:55:34;22.80;99.90
15834;DHT22;8017;50.812;4.934;2022-07-03T09:58:36;22.80;99.90
15834;DHT22;8017;50.812;4.934;2022-07-03T10:01:40;23.00;99.90
15834;DHT22;8017;50.812;4.934;2022-07-03T10:04:42;23.20;99.90
15834;DHT22;8017;50.812;4.934;2022-07-03T10:07:53;23.20;99.90
15834;DHT22;8017;50.812;4.934;2022-07-03T10:10:55;23.00;99.90
15834;DHT22;8017;50.812;4.934;2022-07-03T10:13:57;23.60;99.90
15834;DHT22;8017;50.812;4.934;2022-07-03T10:16:59;24.30;99.90
15834;DHT22;8017;50.812;4.934;2022-07-03T10:20:02;24.90;99.90
15834;DHT22;8017;50.812;4.934;2022-07-03T10:23:06;24.60;99.90
15834;DHT22;8017;50.812;4.934;2022-07-03T10:26:08;24.60;99.90
15834;DHT22;8017;50.812;4.934;2022-07-03T10:29:10;24.60;99.90
15834;DHT22;8017;50.812;4.934;2022-07-03T10:32:16;24.80;99.90
15834;DHT22;8017;50.812;4.934;2022-07-03T10:35:21;24.90;99.90
15834;DHT22;8017;50.812;4.934;2022-07-03T10:38:36;25.10;99.90
15834;DHT22;8017;50.812;4.934;2022-07-03T10:41:43;24.80;99.90
15834;DHT22;8017;50.812;4.934;2022-07-03T10:45:19;24.50;99.90
15834;DHT22;8017;50.812;4.934;2022-07-03T10:48:21;24.00;99.90
15834;DHT22;8017;50.812;4.934;2022-07-03T10:51:23;23.70;99.90
15834;DHT22;8017;50.812;4.934;2022-07-03T10:54:27;23.90;99.90
15834;DHT22;8017;50.812;4.934;2022-07-03T10:57:30;24.20;99.90
15834;DHT22;8017;50.812;4.934;2022-07-03T11:00:51;24.20;99.90
15834;DHT22;8017;50.812;4.934;2022-07-03T11:03:54;24.00;99.90
15834;DHT22;8017;50.812;4.934;2022-07-03T11:07:08;23.80;99.90
15834;DHT22;8017;50.812;4.934;2022-07-03T11:10:31;23.70;99.90
15834;DHT22;8017;50.812;4.934;2022-07-03T11:13:33;24.00;99.90
15834;DHT22;8017;50.812;4.934;2022-07-03T11:16:35;24.40;99.90
15834;DHT22;8017;50.812;4.934;2022-07-03T11:19:37;24.50;99.90
15834;DHT22;8017;50.812;4.934;2022-07-03T11:22:46;24.40;99.90
15834;DHT22;8017;50.812;4.934;2022-07-03T11:25:54;24.70;99.90
15834;DHT22;8017;50.812;4.934;2022-07-03T11:28:56;24.50;99.90
15834;DHT22;8017;50.812;4.934;2022-07-03T11:35:48;24.00;99.90
15834;DHT22;8017;50.812;4.934;2022-07-03T11:39:08;24.50;99.90
15834;DHT22;8017;50.812;4.934;2022-07-03T11:42:11;24.90;99.90
15834;DHT22;8017;50.812;4.934;2022-07-03T11:45:13;25.40;99.90
15834;DHT22;8017;50.812;4.934;2022-07-03T11:48:17;25.20;99.90
15834;DHT22;8017;50.812;4.934;2022-07-03T11:51:19;24.80;99.90
15834;DHT22;8017;50.812;4.934;2022-07-03T11:54:21;24.50;99.90
15834;DHT22;8017;50.812;4.934;2022-07-03T11:57:24;24.00;99.90
15834;DHT22;8017;50.812;4.934;2022-07-03T12:00:29;23.60;99.90
15834;DHT22;8017;50.812;4.934;2022-07-03T12:03:31;23.70;99.90
15834;DHT22;8017;50.812;4.934;2022-07-03T12:06:37;24.00;99.90
15834;DHT22;8017;50.812;4.934;2022-07-03T12:09:39;24.20;99.90
15834;DHT22;8017;50.812;4.934;2022-07-03T12:12:42;24.20;99.90
15834;DHT22;8017;50.812;4.934;2022-07-03T12:15:44;23.90;99.90
15834;DHT22;8017;50.812;4.934;2022-07-03T12:18:48;23.90;99.90
15834;DHT22;8017;50.812;4.934;2022-07-03T12:21:51;23.80;99.90
15834;DHT22;8017;50.812;4.934;2022-07-03T12:25:00;24.10;99.90
15834;DHT22;8017;50.812;4.934;2022-07-03T12:28:04;24.00;99.90
15834;DHT22;8017;50.812;4.934;2022-07-03T12:31:06;24.10;99.90
15834;DHT22;8017;50.812;4.934;2022-07-03T12:34:10;24.40;99.90
15834;DHT22;8017;50.812;4.934;2022-07-03T12:37:12;24.40;99.90
15834;DHT22;8017;50.812;4.934;2022-07-03T12:40:14;24.80;99.90
15834;DHT22;8017;50.812;4.934;2022-07-03T12:43:18;24.80;99.90
15834;DHT22;8017;50.812;4.934;2022-07-03T12:46:21;24.80;99.90
15834;DHT22;8017;50.812;4.934;2022-07-03T12:49:24;24.60;99.90
15834;DHT22;8017;50.812;4.934;2022-07-03T12:52:26;24.30;99.90
15834;DHT22;8017;50.812;4.934;2022-07-03T12:55:28;24.60;99.90
15834;DHT22;8017;50.812;4.934;2022-07-03T12:58:33;24.70;99.90
15834;DHT22;8017;50.812;4.934;2022-07-03T13:02:01;24.40;99.90
15834;DHT22;8017;50.812;4.934;2022-07-03T13:05:14;24.00;99.90
15834;DHT22;8017;50.812;4.934;2022-07-03T13:08:16;24.20;99.90
15834;DHT22;8017;50.812;4.934;2022-07-03T13:11:26;24.40;99.90
15834;DHT22;8017;50.812;4.934;2022-07-03T13:14:29;24.40;99.90
15834;DHT22;8017;50.812;4.934;2022-07-03T13:18:05;24.30;99.90
15834;DHT22;8017;50.812;4.934;2022-07-03T13:21:06;24.10;99.90
15834;DHT22;8017;50.812;4.934;2022-07-03T13:24:08;24.80;99.90
15834;DHT22;8017;50.812;4.934;2022-07-03T13:27:11;25.00;99.90
15834;DHT22;8017;50.812;4.934;2022-07-03T13:30:15;25.30;99.90
15834;DHT22;8017;50.812;4.934;2022-07-03T13:33:17;25.20;99.90
15834;DHT22;8017;50.812;4.934;2022-07-03T13:36:19;24.50;99.90
15834;DHT22;8017;50.812;4.934;2022-07-03T13:39:21;24.20;99.90
15834;DHT22;8017;50.812;4.934;2022-07-03T13:42:23;24.50;99.90
15834;DHT22;8017;50.812;4.934;2022-07-03T13:45:26;24.80;99.90
15834;DHT22;8017;50.812;4.934;2022-07-03T13:48:28;25.20;99.90
15834;DHT22;8017;50.812;4.934;2022-07-03T13:51:33;25.30;99.90
15834;DHT22;8017;50.812;4.934;2022-07-03T13:54:35;25.40;99.90
15834;DHT22;8017;50.812;4.934;2022-07-03T13:57:37;25.20;99.90
15834;DHT22;8017;50.812;4.934;2022-07-03T14:00:40;25.10;99.90
15834;DHT22;8017;50.812;4.934;2022-07-03T14:03:42;25.30;99.90
15834;DHT22;8017;50.812;4.934;2022-07-03T14:06:44;25.30;99.90
15834;DHT22;8017;50.812;4.934;2022-07-03T14:09:46;24.80;99.90
15834;DHT22;8017;50.812;4.934;2022-07-03T14:12:48;24.60;99.90
15834;DHT22;8017;50.812;4.934;2022-07-03T14:15:51;24.70;99.90
15834;DHT22;8017;50.812;4.934;2022-07-03T14:18:54;24.70;99.90
15834;DHT22;8017;50.812;4.934;2022-07-03T14:21:56;24.90;99.90
15834;DHT22;8017;50.812;4.934;2022-07-03T14:24:58;24.80;99.90
15834;DHT22;8017;50.812;4.934;2022-07-03T14:27:59;24.60;99.90
15834;DHT22;8017;50.812;4.934;2022-07-03T14:31:20;24.60;99.90
15834;DHT22;8017;50.812;4.934;2022-07-03T14:34:40;24.90;99.90
15834;DHT22;8017;50.812;4.934;2022-07-03T14:37:42;25.40;99.90
15834;DHT22;8017;50.812;4.934;2022-07-03T14:40:43;25.20;99.90
15834;DHT22;8017;50.812;4.934;2022-07-03T14:43:45;25.40;99.90
15834;DHT22;8017;50.812;4.934;2022-07-03T14:46:49;25.70;99.90
15834;DHT22;8017;50.812;4.934;2022-07-03T14:49:50;25.20;99.90
15834;DHT22;8017;50.812;4.934;2022-07-03T14:52:52;25.20;99.90
15834;DHT22;8017;50.812;4.934;2022-07-03T14:55:55;25.20;99.90
15834;DHT22;8017;50.812;4.934;2022-07-03T14:59:00;25.20;99.90
15834;DHT22;8017;50.812;4.934;2022-07-03T15:02:14;25.10;99.90
15834;DHT22;8017;50.812;4.934;2022-07-03T15:05:20;25.10;99.90
15834;DHT22;8017;50.812;4.934;2022-07-03T15:08:43;25.20;99.90
15834;DHT22;8017;50.812;4.934;2022-07-03T15:11:52;25.30;99.90
15834;DHT22;8017;50.812;4.934;2022-07-03T15:15:14;25.20;99.90
15834;DHT22;8017;50.812;4.934;2022-07-03T15:18:20;25.30;99.90
15834;DHT22;8017;50.812;4.934;2022-07-03T15:21:22;25.20;99.90
15834;DHT22;8017;50.812;4.934;2022-07-03T15:24:26;25.10;99.90
15834;DHT22;8017;50.812;4.934;2022-07-03T15:27:29;25.20;99.90
15834;DHT22;8017;50.812;4.934;2022-07-03T15:30:31;25.50;99.90
15834;DHT22;8017;50.812;4.934;2022-07-03T15:33:34;25.70;99.90
15834;DHT22;8017;50.812;4.934;2022-07-03T15:36:42;25.90;99.90
15834;DHT22;8017;50.812;4.934;2022-07-03T15:39:49;26.30;99.90
15834;DHT22;8017;50.812;4.934;2022-07-03T15:46:38;26.50;99.90
15834;DHT22;8017;50.812;4.934;2022-07-03T15:49:44;26.90;99.90
15834;DHT22;8017;50.812;4.934;2022-07-03T15:52:48;26.70;99.90
15834;DHT22;8017;50.812;4.934;2022-07-03T15:55:54;26.70;99.90
15834;DHT22;8017;50.812;4.934;2022-07-03T15:59:01;26.60;99.90
15834;DHT22;8017;50.812;4.934;2022-07-03T16:02:04;25.80;99.90
15834;DHT22;8017;50.812;4.934;2022-07-03T16:05:24;25.60;99.90
15834;DHT22;8017;50.812;4.934;2022-07-03T16:08:27;26.10;99.90
15834;DHT22;8017;50.812;4.934;2022-07-03T16:11:30;26.50;99.90
15834;DHT22;8017;50.812;4.934;2022-07-03T16:14:34;26.70;99.90
15834;DHT22;8017;50.812;4.934;2022-07-03T16:17:36;26.80;99.90
15834;DHT22;8017;50.812;4.934;2022-07-03T16:20:39;27.10;99.90
15834;DHT22;8017;50.812;4.934;2022-07-03T16:23:43;26.80;99.90
15834;DHT22;8017;50.812;4.934;2022-07-03T16:26:45;26.50;99.90
15834;DHT22;8017;50.812;4.934;2022-07-03T16:29:47;26.50;99.90
15834;DHT22;8017;50.812;4.934;2022-07-03T16:32:49;27.40;99.90
15834;DHT22;8017;50.812;4.934;2022-07-03T16:35:55;27.60;99.90
15834;DHT22;8017;50.812;4.934;2022-07-03T16:39:03;27.00;99.90
15834;DHT22;8017;50.812;4.934;2022-07-03T16:42:07;26.90;99.90
15834;DHT22;8017;50.812;4.934;2022-07-03T16:45:13;27.00;99.90
15834;DHT22;8017;50.812;4.934;2022-07-03T16:48:17;27.00;99.90
15834;DHT22;8017;50.812;4.934;2022-07-03T16:51:23;26.50;99.90
15834;DHT22;8017;50.812;4.934;2022-07-03T16:54:27;25.90;99.90
15834;DHT22;8017;50.812;4.934;2022-07-03T16:57:31;25.70;99.90
15834;DHT22;8017;50.812;4.934;2022-07-03T17:00:33;25.40;99.90
15834;DHT22;8017;50.812;4.934;2022-07-03T17:03:37;25.10;99.90
15834;DHT22;8017;50.812;4.934;2022-07-03T17:06:41;25.80;99.90
15834;DHT22;8017;50.812;4.934;2022-07-03T17:09:43;26.40;99.90
15834;DHT22;8017;50.812;4.934;2022-07-03T17:12:47;26.50;99.90
15834;DHT22;8017;50.812;4.934;2022-07-03T17:15:51;25.90;99.90
15834;DHT22;8017;50.812;4.934;2022-07-03T17:18:55;25.00;99.90
15834;DHT22;8017;50.812;4.934;2022-07-03T17:22:01;24.20;99.90
15834;DHT22;8017;50.812;4.934;2022-07-03T17:25:04;24.30;99.90
15834;DHT22;8017;50.812;4.934;2022-07-03T17:28:06;24.10;99.90
15834;DHT22;8017;50.812;4.934;2022-07-03T17:31:13;23.60;99.90
15834;DHT22;8017;50.812;4.934;2022-07-03T17:34:19;23.60;99.90
15834;DHT22;8017;50.812;4.934;2022-07-03T17:37:24;24.70;99.90
15834;DHT22;8017;50.812;4.934;2022-07-03T17:40:27;25.70;99.90
15834;DHT22;8017;50.812;4.934;2022-07-03T17:43:29;25.90;99.90
15834;DHT22;8017;50.812;4.934;2022-07-03T17:46:31;26.00;99.90
15834;DHT22;8017;50.812;4.934;2022-07-03T17:49:36;25.50;99.90
15834;DHT22;8017;50.812;4.934;2022-07-03T17:52:47;25.20;99.90
15834;DHT22;8017;50.812;4.934;2022-07-03T17:55:51;25.40;99.90
15834;DHT22;8017;50.812;4.934;2022-07-03T17:58:55;26.40;99.90
15834;DHT22;8017;50.812;4.934;2022-07-03T18:01:58;26.70;99.90
15834;DHT22;8017;50.812;4.934;2022-07-03T18:05:00;27.20;99.90
15834;DHT22;8017;50.812;4.934;2022-07-03T18:08:06;27.20;99.90
15834;DHT22;8017;50.812;4.934;2022-07-03T18:11:16;27.30;99.90
15834;DHT22;8017;50.812;4.934;2022-07-03T18:14:22;27.70;99.90
15834;DHT22;8017;50.812;4.934;2022-07-03T18:17:30;27.60;99.90
15834;DHT22;8017;50.812;4.934;2022-07-03T18:20:33;27.10;99.90
15834;DHT22;8017;50.812;4.934;2022-07-03T18:23:41;26.60;99.90
15834;DHT22;8017;50.812;4.934;2022-07-03T18:26:45;26.40;99.90
15834;DHT22;8017;50.812;4.934;2022-07-03T18:29:47;26.40;99.90
15834;DHT22;8017;50.812;4.934;2022-07-03T18:32:52;26.30;99.90
15834;DHT22;8017;50.812;4.934;2022-07-03T18:35:55;25.90;99.90
15834;DHT22;8017;50.812;4.934;2022-07-03T18:39:00;24.80;99.90
15834;DHT22;8017;50.812;4.934;2022-07-03T18:42:03;24.00;99.90
15834;DHT22;8017;50.812;4.934;2022-07-03T18:45:06;23.40;99.90
15834;DHT22;8017;50.812;4.934;2022-07-03T18:48:09;23.00;99.90
15834;DHT22;8017;50.812;4.934;2022-07-03T18:51:15;22.80;99.90
15834;DHT22;8017;50.812;4.934;2022-07-03T18:54:29;22.40;99.90
15834;DHT22;8017;50.812;4.934;2022-07-03T18:57:34;22.20;99.90
15834;DHT22;8017;50.812;4.934;2022-07-03T19:00:42;22.00;99.90
15834;DHT22;8017;50.812;4.934;2022-07-03T19:03:50;21.80;99.90
15834;DHT22;8017;50.812;4.934;2022-07-03T19:06:57;21.60;99.90
15834;DHT22;8017;50.812;4.934;2022-07-03T19:10:03;21.60;99.90
15834;DHT22;8017;50.812;4.934;2022-07-03T19:13:07;21.50;99.90
15834;DHT22;8017;50.812;4.934;2022-07-03T19:16:13;21.40;99.90
15834;DHT22;8017;50.812;4.934;2022-07-03T19:19:17;21.20;99.90
15834;DHT22;8017;50.812;4.934;2022-07-03T19:22:19;21.00;99.90
15834;DHT22;8017;50.812;4.934;2022-07-03T19:25:23;20.80;99.90
15834;DHT22;8017;50.812;4.934;2022-07-03T19:28:28;20.70;99.90
15834;DHT22;8017;50.812;4.934;2022-07-03T19:31:30;20.50;99.90
15834;DHT22;8017;50.812;4.934;2022-07-03T19:34:32;20.20;99.90
15834;DHT22;8017;50.812;4.934;2022-07-03T19:37:35;20.10;99.90
15834;DHT22;8017;50.812;4.934;2022-07-03T19:40:38;19.80;99.90
15834;DHT22;8017;50.812;4.934;2022-07-03T19:43:40;19.70;99.90
15834;DHT22;8017;50.812;4.934;2022-07-03T19:46:42;19.60;99.90
15834;DHT22;8017;50.812;4.934;2022-07-03T19:49:45;19.60;99.90
15834;DHT22;8017;50.812;4.934;2022-07-03T19:52:47;19.50;99.90